Time;durP1;ratioP1;P1;durP2;ratioP2;P2;SDS_P1;SDS_P2;PMS_P1;PMS_P2;Temp;Humidity;BMP_temperature;BMP_pressure;BME280_temperature;BME280_humidity;BME280_pressure;Samples;Min_cycle;Max_cycle;Signal;HPM_P1;HPM_P2
2022/09/22 00:01:24;;;;;;;10.77;6.40;;;13.80;99.90;;;;;;5071411;28;20102;-76
2022/09/22 00:03:53;;;;;;;8.82;6.13;;;13.70;99.90;;;;;;5076568;28;20036;-77
2022/09/22 00:06:31;;;;;;;8.95;5.50;;;13.60;99.90;;;;;;5079091;28;20593;-73
2022/09/22 00:09:02;;;;;;;7.60;4.80;;;13.60;99.90;;;;;;5094411;28;20035;-76
2022/09/22 00:11:30;;;;;;;7.70;5.03;;;13.50;99.90;;;;;;5080098;28;20127;-75
2022/09/22 00:14:03;;;;;;;6.03;4.57;;;13.50;99.90;;;;;;5101406;28;20036;-76
2022/09/22 00:16:44;;;;;;;6.43;5.18;;;13.50;99.90;;;;;;5085554;28;20044;-76
2022/09/22 00:19:17;;;;;;;6.03;4.50;;;13.40;99.90;;;;;;5081448;28;20067;-77
2022/09/22 00:21:44;;;;;;;8.45;5.15;;;13.40;99.90;;;;;;5085509;28;20070;-77
2022/09/22 00:24:11;;;;;;;5.57;4.18;;;13.30;99.90;;;;;;5105237;28;20044;-76
2022/09/22 00:26:38;;;;;;;10.93;6.32;;;13.20;99.90;;;;;;5083351;28;20067;-77
2022/09/22 00:29:08;;;;;;;6.22;5.00;;;13.20;99.90;;;;;;5083963;28;20097;-76
2022/09/22 00:31:35;;;;;;;;;;;13.10;99.90;;;;;;5075432;28;20052;-76
2022/09/22 00:34:03;;;;;;;6.68;4.65;;;13.10;99.90;;;;;;5085305;28;20367;-76
2022/09/22 00:36:30;;;;;;;6.40;4.78;;;13.00;99.90;;;;;;5086742;28;20043;-76
2022/09/22 00:38:57;;;;;;;9.82;5.05;;;13.00;99.90;;;;;;5078867;28;20468;-75
2022/09/22 00:41:35;;;;;;;6.40;5.07;;;12.90;99.90;;;;;;5069423;28;20056;-75
2022/09/22 00:44:20;;;;;;;5.47;4.40;;;12.80;99.90;;;;;;5063677;28;20040;-75
2022/09/22 00:46:51;;;;;;;7.40;5.03;;;12.80;99.90;;;;;;5078791;28;20434;-76
2022/09/22 00:49:23;;;;;;;6.03;4.82;;;12.70;99.90;;;;;;5085444;28;20040;-77
2022/09/22 00:51:50;;;;;;;6.53;5.10;;;12.70;99.90;;;;;;5076785;28;20071;-77
2022/09/22 00:54:17;;;;;;;7.20;5.20;;;12.70;99.90;;;;;;5065698;28;20048;-76
2022/09/22 00:56:51;;;;;;;6.60;4.90;;;12.70;99.90;;;;;;5069401;28;20426;-75
2022/09/22 00:59:19;;;;;;;5.40;4.90;;;12.70;99.90;;;;;;5094923;28;20048;-75
2022/09/22 01:01:46;;;;;;;6.10;5.07;;;12.60;99.90;;;;;;5085982;28;20126;-76
2022/09/22 01:04:15;;;;;;;8.63;5.22;;;12.60;99.90;;;;;;5096211;28;20040;-76
2022/09/22 01:06:42;;;;;;;6.25;5.50;;;12.60;99.90;;;;;;5084438;28;20385;-76
2022/09/22 01:09:08;;;;;;;7.40;4.35;;;12.60;99.90;;;;;;5085512;28;20069;-76
2022/09/22 01:11:36;;;;;;;7.68;5.13;;;12.60;99.90;;;;;;5080367;28;20101;-76
2022/09/22 01:14:10;;;;;;;5.93;4.13;;;12.50;99.90;;;;;;5082751;28;20079;-76
2022/09/22 01:16:46;;;;;;;7.53;5.43;;;12.50;99.90;;;;;;5101735;28;20060;-77
2022/09/22 01:19:33;;;;;;;7.63;5.40;;;12.50;99.90;;;;;;5075073;28;20101;-77
2022/09/22 01:22:07;;;;;;;6.97;5.03;;;12.40;99.90;;;;;;5081172;28;20051;-76
2022/09/22 01:24:53;;;;;;;5.57;4.88;;;12.30;99.90;;;;;;5081897;28;20097;-76
2022/09/22 01:27:51;;;;;;;7.10;4.55;;;12.30;99.90;;;;;;5066202;28;20066;-73
2022/09/22 01:30:22;;;;;;;6.05;4.93;;;12.20;99.90;;;;;;5081637;28;20049;-76
2022/09/22 01:33:11;;;;;;;7.55;4.70;;;12.20;99.90;;;;;;5087528;28;20063;-76
2022/09/22 01:35:50;;;;;;;5.70;4.20;;;12.10;99.90;;;;;;5081256;28;20071;-75
2022/09/22 01:38:30;;;;;;;6.90;4.53;;;12.10;99.90;;;;;;5073782;28;20094;-76
2022/09/22 01:41:09;;;;;;;4.90;4.07;;;12.10;99.90;;;;;;5085630;28;20055;-75
2022/09/22 01:43:51;;;;;;;7.25;5.25;;;12.10;99.90;;;;;;5061531;28;20067;-77
2022/09/22 01:46:28;;;;;;;8.35;5.32;;;12.00;99.90;;;;;;5103909;28;20067;-76
2022/09/22 01:48:56;;;;;;;5.57;4.55;;;12.00;99.90;;;;;;5076216;28;20383;-76
2022/09/22 01:51:28;;;;;;;6.45;4.80;;;12.00;99.90;;;;;;5076566;28;20755;-74
2022/09/22 01:54:10;;;;;;;6.82;4.40;;;11.90;99.90;;;;;;5084029;28;20044;-76
2022/09/22 01:56:37;;;;;;;7.55;4.55;;;11.90;99.90;;;;;;5094482;28;20117;-76
2022/09/22 01:59:05;;;;;;;8.93;4.93;;;11.90;99.90;;;;;;5084468;28;20048;-75
2022/09/22 02:01:40;;;;;;;7.05;5.10;;;11.80;99.90;;;;;;5091609;28;20040;-73
2022/09/22 02:04:18;;;;;;;7.20;4.60;;;11.80;99.90;;;;;;5064746;28;20048;-76
2022/09/22 02:07:07;;;;;;;7.40;5.15;;;11.70;99.90;;;;;;5070220;28;20032;-75
2022/09/22 02:09:34;;;;;;;5.53;4.78;;;11.70;99.90;;;;;;5085492;28;20492;-76
2022/09/22 02:12:02;;;;;;;5.35;4.65;;;11.70;99.90;;;;;;5086131;28;20071;-76
2022/09/22 02:14:29;;;;;;;7.85;5.18;;;11.60;99.90;;;;;;5070170;28;20044;-77
2022/09/22 02:16:56;;;;;;;6.70;4.60;;;11.60;99.90;;;;;;5084296;28;20108;-76
2022/09/22 02:19:35;;;;;;;7.50;5.03;;;11.60;99.90;;;;;;5083554;28;20044;-75
2022/09/22 02:22:05;;;;;;;6.28;4.47;;;11.60;99.90;;;;;;5080277;28;20056;-76
2022/09/22 02:24:40;;;;;;;8.63;4.65;;;11.50;99.90;;;;;;5100796;28;20361;-76
2022/09/22 02:27:25;;;;;;;13.45;5.20;;;11.50;99.90;;;;;;5078705;28;20471;-77
2022/09/22 02:29:58;;;;;;;8.02;4.65;;;11.40;99.90;;;;;;5086619;28;20064;-74
2022/09/22 02:32:25;;;;;;;6.85;5.47;;;11.40;99.90;;;;;;5083174;28;20079;-76
2022/09/22 02:34:52;;;;;;;6.75;5.32;;;11.40;99.90;;;;;;5098359;28;20040;-76
2022/09/22 02:37:32;;;;;;;8.15;5.28;;;11.40;99.90;;;;;;5094047;28;20071;-77
2022/09/22 02:40:14;;;;;;;8.05;5.93;;;11.40;99.90;;;;;;5083686;28;20044;-76
2022/09/22 02:42:44;;;;;;;7.10;5.68;;;11.40;99.90;;;;;;5083560;28;20115;-77
2022/09/22 02:45:51;;;;;;;6.30;4.85;;;11.30;99.90;;;;;;5069779;28;20079;-76
2022/09/22 02:48:23;;;;;;;6.90;4.97;;;11.30;99.90;;;;;;5081824;28;20051;-76
2022/09/22 02:50:50;;;;;;;6.57;5.28;;;11.30;99.90;;;;;;5079084;28;20455;-75
2022/09/22 02:53:17;;;;;;;6.72;4.85;;;11.20;99.90;;;;;;5099155;28;20086;-75
2022/09/22 02:55:44;;;;;;;17.98;5.05;;;11.10;99.90;;;;;;5084385;28;20424;-77
2022/09/22 02:58:12;;;;;;;243.05;207.77;;;11.10;99.90;;;;;;5094570;28;20048;-71
2022/09/22 03:00:39;;;;;;;35.47;28.98;;;11.10;99.90;;;;;;5073910;28;20036;-75
2022/09/22 03:03:06;;;;;;;16.08;13.45;;;11.10;99.90;;;;;;5096595;28;20084;-74
2022/09/22 03:05:32;;;;;;;9.88;7.38;;;11.10;99.90;;;;;;5083439;28;20480;-74
2022/09/22 03:07:59;;;;;;;8.98;6.15;;;11.00;99.90;;;;;;5078139;28;20140;-74
2022/09/22 03:10:26;;;;;;;7.25;4.53;;;11.00;99.90;;;;;;5072286;28;20444;-74
2022/09/22 03:12:53;;;;;;;7.43;5.10;;;11.00;99.90;;;;;;5080008;28;20082;-74
2022/09/22 03:15:40;;;;;;;6.32;4.47;;;10.90;99.90;;;;;;5084817;28;20044;-74
2022/09/22 03:18:07;;;;;;;5.85;4.55;;;10.90;99.90;;;;;;5077895;28;20067;-74
2022/09/22 03:20:34;;;;;;;5.32;4.10;;;10.80;99.90;;;;;;5086018;28;20079;-74
2022/09/22 03:23:00;;;;;;;8.05;4.55;;;10.80;99.90;;;;;;5082570;28;20093;-76
2022/09/22 03:25:27;;;;;;;5.28;4.20;;;10.80;99.90;;;;;;5096675;28;20040;-76
2022/09/22 03:27:54;;;;;;;7.00;4.45;;;10.80;99.90;;;;;;5072502;28;20060;-76
2022/09/22 03:30:21;;;;;;;6.03;4.80;;;10.70;99.90;;;;;;5080737;28;20500;-76
2022/09/22 03:32:48;;;;;;;6.07;4.25;;;10.70;99.90;;;;;;5096240;28;20072;-76
2022/09/22 03:35:15;;;;;;;7.35;4.57;;;10.70;99.90;;;;;;5074844;28;20044;-76
2022/09/22 03:37:41;;;;;;;6.32;4.38;;;10.70;99.90;;;;;;5083399;28;20079;-75
2022/09/22 03:40:09;;;;;;;6.78;4.50;;;10.70;99.90;;;;;;5080009;28;20040;-75
2022/09/22 03:42:35;;;;;;;5.55;4.20;;;10.70;99.90;;;;;;5080432;28;20414;-76
2022/09/22 03:45:03;;;;;;;6.18;4.05;;;10.60;99.90;;;;;;5080933;28;21444;-76
2022/09/22 03:47:30;;;;;;;6.53;4.13;;;10.60;99.90;;;;;;5078400;28;20042;-76
2022/09/22 03:49:57;;;;;;;5.50;3.55;;;10.60;99.90;;;;;;5077491;28;20498;-75
2022/09/22 03:52:24;;;;;;;4.80;3.40;;;10.60;99.90;;;;;;5077577;28;20041;-75
2022/09/22 03:54:52;;;;;;;6.00;4.32;;;10.60;99.90;;;;;;5077449;28;20090;-74
2022/09/22 03:57:18;;;;;;;5.13;4.05;;;10.60;99.90;;;;;;5073692;28;20093;-75
2022/09/22 03:59:45;;;;;;;5.90;3.63;;;10.60;99.90;;;;;;5097656;28;20036;-75
2022/09/22 04:02:12;;;;;;;6.28;3.97;;;10.50;99.90;;;;;;5093017;28;21389;-75
2022/09/22 04:04:39;;;;;;;7.40;3.95;;;10.50;99.90;;;;;;5081356;28;20032;-75
2022/09/22 04:07:06;;;;;;;6.38;4.97;;;10.50;99.90;;;;;;5081069;28;20044;-75
2022/09/22 04:09:33;;;;;;;4.75;3.25;;;10.40;99.90;;;;;;5080414;28;20032;-75
2022/09/22 04:12:00;;;;;;;6.85;4.43;;;10.40;99.90;;;;;;5080302;28;20537;-75
2022/09/22 04:14:28;;;;;;;4.90;3.90;;;10.40;99.90;;;;;;5082779;28;20157;-75
2022/09/22 04:16:55;;;;;;;7.85;3.90;;;10.40;99.90;;;;;;5083109;28;20048;-75
2022/09/22 04:19:22;;;;;;;6.65;4.88;;;10.40;99.90;;;;;;5082665;28;20063;-75
2022/09/22 04:21:49;;;;;;;7.45;4.80;;;10.40;99.90;;;;;;5077322;28;20074;-75
2022/09/22 04:24:23;;;;;;;4.53;3.58;;;10.30;99.90;;;;;;5081292;28;20098;-75
2022/09/22 04:26:50;;;;;;;6.40;3.80;;;10.30;99.90;;;;;;5075934;28;20041;-74
2022/09/22 04:29:37;;;;;;;6.25;4.13;;;10.40;99.90;;;;;;5080176;28;20045;-75
2022/09/22 04:32:04;;;;;;;10.05;4.88;;;10.30;99.90;;;;;;5074273;28;20085;-76
2022/09/22 04:34:31;;;;;;;5.90;4.03;;;10.30;99.90;;;;;;5076980;28;20052;-74
2022/09/22 04:36:58;;;;;;;6.20;4.15;;;10.30;99.90;;;;;;5079952;28;20040;-75
2022/09/22 04:39:27;;;;;;;5.32;4.15;;;10.20;99.90;;;;;;5082323;28;20150;-75
2022/09/22 04:41:54;;;;;;;6.68;4.10;;;10.20;99.90;;;;;;5078476;28;20045;-75
2022/09/22 04:44:21;;;;;;;6.13;4.15;;;10.20;99.90;;;;;;5084147;28;20072;-75
2022/09/22 04:46:49;;;;;;;7.15;4.25;;;10.20;99.90;;;;;;5079332;28;20048;-75
2022/09/22 04:49:16;;;;;;;9.38;4.43;;;10.10;99.90;;;;;;5075348;28;20114;-75
2022/09/22 04:51:43;;;;;;;5.75;4.78;;;10.10;99.90;;;;;;5073394;28;20083;-75
2022/09/22 04:54:10;;;;;;;6.43;4.05;;;10.10;99.90;;;;;;5076912;28;20097;-74
2022/09/22 04:56:37;;;;;;;5.63;4.00;;;10.10;99.90;;;;;;5076705;28;20074;-75
2022/09/22 04:59:04;;;;;;;4.80;4.00;;;10.10;99.90;;;;;;5084446;28;20040;-75
2022/09/22 05:01:31;;;;;;;8.50;4.22;;;10.10;99.90;;;;;;5089149;28;20105;-75
2022/09/22 05:03:58;;;;;;;5.20;4.10;;;10.10;99.90;;;;;;5076543;28;20101;-75
2022/09/22 05:06:25;;;;;;;7.45;4.93;;;10.00;99.90;;;;;;5082129;28;20487;-75
2022/09/22 05:08:52;;;;;;;9.00;5.18;;;10.00;99.90;;;;;;5098377;28;20071;-75
2022/09/22 05:11:20;;;;;;;5.47;4.43;;;10.00;99.90;;;;;;5081273;28;20490;-75
2022/09/22 05:13:47;;;;;;;10.80;5.20;;;10.00;99.90;;;;;;5076830;28;20109;-74
2022/09/22 05:16:14;;;;;;;6.28;4.95;;;10.00;99.90;;;;;;5098246;28;20047;-75
2022/09/22 05:18:41;;;;;;;6.90;4.93;;;9.90;99.90;;;;;;5076788;28;20083;-75
2022/09/22 05:21:08;;;;;;;8.35;5.60;;;9.90;99.90;;;;;;5072592;28;20123;-75
2022/09/22 05:23:35;;;;;;;8.57;5.25;;;9.90;99.90;;;;;;5083579;28;20039;-75
2022/09/22 05:26:02;;;;;;;7.88;4.70;;;9.90;99.90;;;;;;5063676;28;20102;-73
2022/09/22 05:28:30;;;;;;;6.47;4.55;;;9.90;99.90;;;;;;5085571;28;20040;-73
2022/09/22 05:30:57;;;;;;;6.18;4.30;;;9.90;99.90;;;;;;5086157;28;20049;-73
2022/09/22 05:33:24;;;;;;;4.63;4.18;;;9.90;99.90;;;;;;5091030;28;20051;-73
2022/09/22 05:35:51;;;;;;;6.30;5.40;;;9.90;99.90;;;;;;5078607;28;20127;-73
2022/09/22 05:38:18;;;;;;;6.93;4.85;;;9.80;99.90;;;;;;5085312;28;20036;-75
2022/09/22 05:40:48;;;;;;;6.78;4.90;;;9.80;99.90;;;;;;5071320;28;20047;-74
2022/09/22 05:43:14;;;;;;;;;;;9.80;99.90;;;;;;5080378;28;20341;-75
2022/09/22 05:45:42;;;;;;;7.68;4.93;;;9.90;99.90;;;;;;5076886;28;19920;-74
2022/09/22 05:48:09;;;;;;;7.95;5.88;;;9.80;99.90;;;;;;5083002;28;20960;-74
2022/09/22 05:50:36;;;;;;;57.78;46.70;;;9.90;99.90;;;;;;5080642;28;20147;-74
2022/09/22 05:53:05;;;;;;;12.65;10.15;;;9.90;99.90;;;;;;5083508;28;20040;-73
2022/09/22 05:55:32;;;;;;;10.88;8.80;;;9.90;99.90;;;;;;5077418;28;20059;-72
2022/09/22 05:57:59;;;;;;;8.90;7.38;;;9.90;99.90;;;;;;5095317;28;20126;-73
2022/09/22 06:00:26;;;;;;;9.70;6.35;;;9.90;99.90;;;;;;5084649;28;20041;-73
2022/09/22 06:02:53;;;;;;;8.93;5.75;;;9.90;99.90;;;;;;5077282;28;20083;-72
2022/09/22 06:05:20;;;;;;;6.38;5.63;;;10.00;99.90;;;;;;5087651;28;20044;-73
2022/09/22 06:07:51;;;;;;;8.55;5.88;;;10.00;99.90;;;;;;5080907;28;20040;-72
2022/09/22 06:10:18;;;;;;;8.80;5.95;;;10.00;99.90;;;;;;5084322;28;20079;-72
2022/09/22 06:12:45;;;;;;;7.32;5.38;;;10.10;99.90;;;;;;5096805;28;20063;-73
2022/09/22 06:15:11;;;;;;;6.90;5.88;;;10.10;99.90;;;;;;5096580;28;20044;-69
2022/09/22 06:17:38;;;;;;;8.48;6.68;;;10.10;99.90;;;;;;5083634;28;20045;-78
2022/09/22 06:20:07;;;;;;;25.63;19.40;;;10.20;99.90;;;;;;5082986;28;20044;-69
2022/09/22 06:22:36;;;;;;;39.63;32.05;;;10.20;99.90;;;;;;5080586;28;20041;-73
2022/09/22 06:25:04;;;;;;;20.73;15.17;;;10.30;99.90;;;;;;5080333;28;20037;-68
2022/09/22 06:27:31;;;;;;;11.75;9.73;;;10.30;99.90;;;;;;5078193;28;20297;-76
2022/09/22 06:29:58;;;;;;;11.68;8.57;;;10.40;99.90;;;;;;5081518;28;20110;-71
2022/09/22 06:32:24;;;;;;;8.60;6.78;;;10.40;99.90;;;;;;5082383;28;20094;-72
2022/09/22 06:34:51;;;;;;;7.80;5.80;;;10.40;99.90;;;;;;5085498;28;20085;-72
2022/09/22 06:37:19;;;;;;;10.13;6.85;;;10.50;99.90;;;;;;5078908;28;20121;-71
2022/09/22 06:39:46;;;;;;;60.78;51.08;;;10.50;99.90;;;;;;5075821;28;20503;-72
2022/09/22 06:42:15;;;;;;;14.50;12.20;;;10.70;99.90;;;;;;5063254;28;20484;-73
2022/09/22 06:44:43;;;;;;;11.27;9.45;;;10.70;99.90;;;;;;5083250;28;20081;-72
2022/09/22 06:47:11;;;;;;;8.43;6.82;;;10.80;99.90;;;;;;5077948;28;20044;-74
2022/09/22 06:49:38;;;;;;;9.07;6.45;;;10.80;99.90;;;;;;5075925;28;20044;-75
2022/09/22 06:52:05;;;;;;;10.85;6.68;;;10.90;99.90;;;;;;5083992;28;20035;-80
2022/09/22 06:54:32;;;;;;;8.50;6.57;;;11.00;99.90;;;;;;5080173;28;20052;-70
2022/09/22 06:56:59;;;;;;;8.50;6.38;;;11.00;99.90;;;;;;5081838;28;20044;-71
2022/09/22 06:59:26;;;;;;;7.35;6.05;;;11.10;99.90;;;;;;5074836;28;20480;-70
2022/09/22 07:01:53;;;;;;;7.65;5.97;;;11.10;99.90;;;;;;5087137;28;20040;-71
2022/09/22 07:04:22;;;;;;;7.35;5.65;;;11.20;99.90;;;;;;5079696;28;20036;-81
2022/09/22 07:06:49;;;;;;;8.77;6.95;;;11.30;99.90;;;;;;5089582;28;20065;-76
2022/09/22 07:09:16;;;;;;;7.35;5.57;;;11.40;99.90;;;;;;5093779;28;20048;-72
2022/09/22 07:11:43;;;;;;;10.15;7.10;;;11.50;99.90;;;;;;5078136;28;20479;-68
2022/09/22 07:14:11;;;;;;;8.20;5.43;;;11.50;99.90;;;;;;5083105;28;20043;-66
2022/09/22 07:16:39;;;;;;;7.35;4.97;;;11.60;99.90;;;;;;5080130;28;20041;-68
2022/09/22 07:19:06;;;;;;;6.05;4.93;;;11.70;99.90;;;;;;5084620;28;20046;-73
2022/09/22 07:21:36;;;;;;;11.43;5.45;;;11.80;99.90;;;;;;5092770;28;20106;-73
2022/09/22 07:24:07;;;;;;;7.85;5.75;;;11.90;99.90;;;;;;5077334;28;20051;-70
2022/09/22 07:26:36;;;;;;;8.18;6.40;;;12.00;99.90;;;;;;5062444;28;20387;-70
2022/09/22 07:29:04;;;;;;;88.67;69.13;;;12.10;99.90;;;;;;5075956;28;20077;-69
2022/09/22 07:31:33;;;;;;;24.97;22.00;;;12.20;99.90;;;;;;5074234;28;20049;-69
2022/09/22 07:34:02;;;;;;;22.75;18.08;;;12.30;99.90;;;;;;5075354;28;20414;-79
2022/09/22 07:36:31;;;;;;;11.40;7.45;;;12.30;99.90;;;;;;5075146;28;20040;-68
2022/09/22 07:39:02;;;;;;;9.48;6.60;;;12.50;99.90;;;;;;5073568;28;20480;-69
2022/09/22 07:41:30;;;;;;;219.07;180.98;;;12.60;99.90;;;;;;5071463;28;20040;-73
2022/09/22 07:46:44;;;;;;;13.23;11.80;;;12.80;99.90;;;;;;5081392;28;20040;-70
2022/09/22 07:49:13;;;;;;;12.70;7.25;;;12.80;99.90;;;;;;5061866;28;20051;-71
2022/09/22 07:51:40;;;;;;;;;;;12.90;99.90;;;;;;5070363;28;20048;-71
2022/09/22 07:54:07;;;;;;;7.70;4.75;;;13.00;99.90;;;;;;5080776;28;19916;-68
2022/09/22 07:56:39;;;;;;;7.93;4.35;;;13.10;99.90;;;;;;5079504;28;20082;-69
2022/09/22 07:59:11;;;;;;;5.75;4.53;;;13.20;99.90;;;;;;5066114;28;20464;-74
2022/09/22 08:01:43;;;;;;;4.97;3.70;;;13.20;99.90;;;;;;5084632;28;20484;-69
2022/09/22 08:04:15;;;;;;;13.35;5.10;;;13.30;99.90;;;;;;5104601;28;20045;-69
2022/09/22 08:06:43;;;;;;;9.43;4.95;;;13.50;99.90;;;;;;5090691;28;20123;-78
2022/09/22 08:09:10;;;;;;;6.53;5.03;;;13.50;99.90;;;;;;5072586;28;20431;-75
2022/09/22 08:11:37;;;;;;;10.95;5.55;;;13.60;99.90;;;;;;5078108;28;20434;-75
2022/09/22 08:14:10;;;;;;;8.82;5.63;;;13.70;99.90;;;;;;5073040;28;20040;-75
2022/09/22 08:16:38;;;;;;;7.18;5.20;;;13.80;99.90;;;;;;5080833;28;20047;-81
2022/09/22 08:19:13;;;;;;;7.32;5.47;;;13.90;99.90;;;;;;5068680;28;20047;-68
2022/09/22 08:21:45;;;;;;;240.57;204.20;;;14.10;99.90;;;;;;5081157;28;20044;-78
2022/09/22 08:24:20;;;;;;;25.77;22.98;;;14.20;99.90;;;;;;5098151;28;20113;-78
2022/09/22 08:26:48;;;;;;;12.45;11.15;;;14.30;99.90;;;;;;5081453;28;20036;-74
2022/09/22 08:29:15;;;;;;;10.05;7.40;;;14.40;99.90;;;;;;5076724;28;20036;-78
2022/09/22 08:31:44;;;;;;;14.18;6.15;;;14.60;99.90;;;;;;5065205;28;20036;-77
2022/09/22 08:34:12;;;;;;;10.80;5.88;;;14.70;99.90;;;;;;5075511;28;20060;-78
2022/09/22 08:36:45;;;;;;;10.05;5.07;;;14.80;99.90;;;;;;5074391;28;20098;-79
2022/09/22 08:39:13;;;;;;;9.77;5.45;;;14.90;99.90;;;;;;5086847;28;20119;-79
2022/09/22 08:42:28;;;;;;;9.00;5.10;;;15.00;99.90;;;;;;5082318;28;20040;-72
2022/09/22 08:45:09;;;;;;;8.38;4.75;;;15.20;99.90;;;;;;5073930;28;20037;-78
2022/09/22 08:53:33;;;;;;;11.18;5.13;;;15.60;99.90;;;;;;5080622;28;20055;-77
2022/09/22 08:56:10;;;;;;;7.15;5.03;;;15.70;99.90;;;;;;5078267;28;20114;-78
2022/09/22 08:58:54;;;;;;;10.70;5.32;;;15.80;99.90;;;;;;5083654;28;20411;-77
2022/09/22 09:01:45;;;;;;;11.13;4.95;;;15.90;99.90;;;;;;5079117;28;20043;-79
2022/09/22 09:04:25;;;;;;;9.68;5.40;;;15.90;99.90;;;;;;5082402;28;20035;-78
2022/09/22 09:06:57;;;;;;;6.57;4.15;;;16.00;99.90;;;;;;5064812;28;20117;-78
2022/09/22 09:09:45;;;;;;;10.75;4.35;;;16.10;99.90;;;;;;5074761;28;20068;-77
2022/09/22 09:12:26;;;;;;;12.83;4.67;;;16.10;99.90;;;;;;5080820;28;20699;-78
2022/09/22 09:14:56;;;;;;;7.20;3.83;;;16.20;99.90;;;;;;5081951;28;20070;-75
2022/09/22 09:17:27;;;;;;;6.03;4.18;;;16.20;99.90;;;;;;5079991;28;20048;-78
2022/09/22 09:19:58;;;;;;;4.97;3.70;;;16.30;99.90;;;;;;5082315;28;20032;-78
2022/09/22 09:22:31;;;;;;;6.05;3.33;;;16.40;99.90;;;;;;5101657;28;20066;-78
2022/09/22 09:25:22;;;;;;;5.32;3.47;;;16.50;99.90;;;;;;5068563;28;20070;-79
2022/09/22 09:27:58;;;;;;;5.97;3.15;;;16.60;99.90;;;;;;5077321;28;20048;-77
2022/09/22 09:30:25;;;;;;;5.57;3.25;;;16.60;99.90;;;;;;5076213;28;20430;-79
2022/09/22 09:33:03;;;;;;;5.10;2.80;;;16.70;99.90;;;;;;5086233;28;20514;-77
2022/09/22 09:35:43;;;;;;;6.90;2.88;;;16.70;99.90;;;;;;5093390;28;20433;-77
2022/09/22 09:38:14;;;;;;;9.82;2.65;;;16.70;99.90;;;;;;5077737;28;20476;-75
2022/09/22 09:40:41;;;;;;;5.95;3.25;;;16.80;99.90;;;;;;5081280;28;20036;-77
2022/09/22 09:43:08;;;;;;;7.47;3.10;;;16.90;99.90;;;;;;5080161;28;20044;-74
2022/09/22 09:45:51;;;;;;;6.93;3.13;;;16.90;99.90;;;;;;5064728;28;20040;-78
2022/09/22 09:48:46;;;;;;;7.80;3.50;;;17.10;99.90;;;;;;5083793;28;20043;-78
2022/09/22 09:51:13;;;;;;;6.97;3.70;;;17.10;99.90;;;;;;5077190;28;20047;-76
2022/09/22 09:53:44;;;;;;;12.82;3.35;;;17.30;99.90;;;;;;5085576;28;20116;-77
2022/09/22 09:56:25;;;;;;;5.38;2.90;;;17.40;99.90;;;;;;5084252;28;20055;-78
2022/09/22 10:01:41;;;;;;;7.10;3.10;;;17.50;99.90;;;;;;5085874;28;20085;-79
2022/09/22 10:04:21;;;;;;;7.35;2.88;;;17.50;99.90;;;;;;5078850;28;20055;-76
2022/09/22 10:06:48;;;;;;;5.38;2.53;;;17.60;99.90;;;;;;5081464;28;20476;-75
2022/09/22 10:09:26;;;;;;;6.68;2.20;;;17.70;99.90;;;;;;5097331;28;20055;-78
2022/09/22 10:12:00;;;;;;;7.93;2.67;;;17.80;99.90;;;;;;5085369;28;20077;-78
2022/09/22 10:14:33;;;;;;;4.10;2.80;;;17.80;99.90;;;;;;5092573;28;20090;-73
2022/09/22 10:17:02;;;;;;;7.30;2.78;;;17.90;99.90;;;;;;5092412;28;20070;-73
2022/09/22 10:19:30;;;;;;;5.68;2.75;;;17.90;99.90;;;;;;5091208;28;20051;-73
2022/09/22 10:22:16;;;;;;;4.68;2.53;;;18.00;99.90;;;;;;5083122;28;20161;-75
2022/09/22 10:24:52;;;;;;;5.57;2.30;;;18.10;99.90;;;;;;5080694;28;20044;-73
2022/09/22 10:27:20;;;;;;;6.03;2.60;;;18.20;99.90;;;;;;5089091;28;20066;-73
2022/09/22 10:29:47;;;;;;;4.57;2.65;;;18.20;99.90;;;;;;5074744;28;20506;-79
2022/09/22 10:32:15;;;;;;;3.30;2.05;;;18.40;99.90;;;;;;5073718;28;20365;-73
2022/09/22 10:34:43;;;;;;;5.13;2.70;;;18.40;99.90;;;;;;5086649;28;20482;-73
2022/09/22 10:37:17;;;;;;;6.07;3.88;;;18.50;99.90;;;;;;5080881;28;20036;-70
2022/09/22 10:39:46;;;;;;;13.65;10.52;;;18.60;99.90;;;;;;5075417;28;20412;-69
2022/09/22 10:42:32;;;;;;;6.10;3.00;;;18.60;99.90;;;;;;5097605;28;20044;-68
2022/09/22 10:45:08;;;;;;;4.72;2.35;;;18.80;99.90;;;;;;5075430;28;20285;-73
2022/09/22 10:47:56;;;;;;;5.57;3.05;;;18.80;99.90;;;;;;5082757;28;20032;-72
2022/09/22 10:51:02;;;;;;;5.35;2.50;;;18.90;99.90;;;;;;5077869;28;20044;-78
2022/09/22 10:54:08;;;;;;;9.02;2.80;;;19.00;99.90;;;;;;5044828;28;20044;-72
2022/09/22 10:56:36;;;;;;;5.30;2.90;;;19.20;99.90;;;;;;5079184;28;20480;-77
2022/09/22 10:59:25;;;;;;;4.97;2.28;;;19.30;99.90;;;;;;5078861;28;20111;-74
2022/09/22 11:01:56;;;;;;;5.13;2.78;;;19.30;99.90;;;;;;5075326;28;20472;-75
2022/09/22 11:04:40;;;;;;;7.20;3.22;;;19.20;99.90;;;;;;5080816;28;20041;-72
2022/09/22 11:13:47;;;;;;;11.05;2.92;;;19.30;99.90;;;;;;5064660;28;20037;-69
2022/09/22 11:16:36;;;;;;;6.75;2.47;;;19.30;99.90;;;;;;5083532;28;20044;-69
2022/09/22 11:19:18;;;;;;;;;;;19.30;99.90;;;;;;5079971;28;20068;-69
2022/09/22 11:21:48;;;;;;;6.40;2.80;;;19.30;99.90;;;;;;5075110;28;20480;-69
2022/09/22 11:24:18;;;;;;;4.97;2.95;;;19.50;99.90;;;;;;5083187;28;20056;-73
2022/09/22 11:26:51;;;;;;;8.40;3.08;;;19.70;99.90;;;;;;5082750;28;20040;-69
2022/09/22 11:29:45;;;;;;;7.35;2.17;;;19.90;99.90;;;;;;5082188;28;21373;-70
2022/09/22 11:32:19;;;;;;;4.70;3.53;;;19.90;99.90;;;;;;5082956;28;20365;-70
2022/09/22 11:35:05;;;;;;;6.55;2.53;;;20.00;99.90;;;;;;5078208;28;20087;-68
2022/09/22 11:37:55;;;;;;;4.75;2.83;;;20.10;99.90;;;;;;5081585;28;20064;-70
2022/09/22 11:40:25;;;;;;;3.83;2.17;;;20.00;99.90;;;;;;5078097;28;20052;-71
2022/09/22 11:43:20;;;;;;;7.00;3.05;;;20.00;99.90;;;;;;5088786;28;20043;-62
2022/09/22 11:45:53;;;;;;;6.43;2.30;;;19.90;99.90;;;;;;5061313;28;20048;-64
2022/09/22 11:48:44;;;;;;;4.38;2.55;;;19.90;99.90;;;;;;5073413;28;20044;-71
2022/09/22 11:51:26;;;;;;;5.82;2.60;;;19.80;99.90;;;;;;5075404;28;20110;-72
2022/09/22 11:54:08;;;;;;;4.05;2.28;;;19.70;99.90;;;;;;5076230;28;20094;-69
2022/09/22 11:56:37;;;;;;;7.80;3.20;;;19.60;99.90;;;;;;5076938;28;20151;-70
2022/09/22 11:59:36;;;;;;;5.82;2.22;;;19.60;99.90;;;;;;5085498;28;20059;-70
2022/09/22 12:02:04;;;;;;;;;;;19.60;99.90;;;;;;5080225;28;20472;-69
2022/09/22 12:04:54;;;;;;;4.93;2.28;;;19.60;99.90;;;;;;5085767;28;19916;-71
2022/09/22 12:07:25;;;;;;;7.15;2.58;;;19.70;99.90;;;;;;5073922;28;20045;-74
2022/09/22 12:10:00;;;;;;;6.30;2.75;;;19.80;99.90;;;;;;5085786;28;20078;-76
2022/09/22 12:12:28;;;;;;;6.93;2.50;;;19.80;99.90;;;;;;5092163;28;20529;-76
2022/09/22 12:15:14;;;;;;;6.88;3.03;;;19.80;99.90;;;;;;5077881;28;20090;-76
2022/09/22 12:17:50;;;;;;;5.75;2.25;;;19.90;99.90;;;;;;5066217;28;20040;-72
2022/09/22 12:20:37;;;;;;;7.53;2.83;;;20.00;99.90;;;;;;5084339;28;20040;-74
2022/09/22 12:23:41;;;;;;;4.97;2.38;;;19.90;99.90;;;;;;5089164;28;20049;-65
2022/09/22 12:26:14;;;;;;;6.10;2.83;;;19.80;99.90;;;;;;5086828;28;20387;-66
2022/09/22 12:28:44;;;;;;;7.80;2.97;;;19.80;99.90;;;;;;5083461;28;20072;-73
2022/09/22 12:31:13;;;;;;;4.30;2.40;;;19.80;99.90;;;;;;5088006;28;20036;-76
2022/09/22 12:33:49;;;;;;;5.03;2.58;;;19.90;99.90;;;;;;5084020;28;20097;-76
2022/09/22 12:36:16;;;;;;;4.43;2.63;;;20.00;99.90;;;;;;5098337;28;20048;-75
2022/09/22 12:38:44;;;;;;;5.47;2.30;;;20.00;99.90;;;;;;5079760;28;20090;-74
2022/09/22 12:41:16;;;;;;;4.03;2.33;;;20.00;99.90;;;;;;5096145;28;20419;-75
2022/09/22 12:43:43;;;;;;;5.40;3.30;;;20.00;99.90;;;;;;5066714;28;20058;-74
2022/09/22 12:46:23;;;;;;;5.00;2.45;;;20.00;99.90;;;;;;5084338;28;20044;-69
2022/09/22 12:48:50;;;;;;;12.68;2.97;;;20.10;99.90;;;;;;5066468;28;20051;-70
2022/09/22 12:51:23;;;;;;;5.70;2.92;;;20.10;99.90;;;;;;5068912;28;20113;-72
2022/09/22 12:53:51;;;;;;;5.03;2.22;;;20.20;99.90;;;;;;5089467;28;20145;-72
2022/09/22 12:56:39;;;;;;;6.20;2.30;;;20.30;99.90;;;;;;5082794;28;20044;-72
2022/09/22 12:59:34;;;;;;;8.30;2.55;;;20.40;99.90;;;;;;5077547;28;20050;-73
2022/09/22 13:02:14;;;;;;;4.72;2.60;;;20.40;99.90;;;;;;5081938;28;20052;-72
2022/09/22 13:04:54;;;;;;;9.82;2.40;;;20.40;99.90;;;;;;5075762;28;20130;-72
2022/09/22 13:07:30;;;;;;;;;;;20.30;99.90;;;;;;5082699;28;20472;-71
2022/09/22 13:13:10;;;;;;;4.20;2.30;;;20.30;99.90;;;;;;5089859;28;20044;-69
2022/09/22 13:15:46;;;;;;;5.38;2.65;;;20.40;99.90;;;;;;5089727;28;20431;-69
2022/09/22 13:18:29;;;;;;;6.55;2.72;;;20.40;99.90;;;;;;5082391;28;20090;-69
2022/09/22 13:20:57;;;;;;;6.00;2.25;;;20.40;99.90;;;;;;5084098;28;20041;-70
2022/09/22 13:23:23;;;;;;;4.10;2.15;;;20.40;99.90;;;;;;5085289;28;20070;-72
2022/09/22 13:25:51;;;;;;;6.28;2.15;;;20.50;99.90;;;;;;5080942;28;20048;-72
2022/09/22 13:28:22;;;;;;;6.35;2.45;;;20.60;99.90;;;;;;5082273;28;20044;-69
2022/09/22 13:31:14;;;;;;;5.00;2.10;;;20.70;99.90;;;;;;5044155;28;20052;-70
2022/09/22 13:33:41;;;;;;;5.35;2.30;;;20.70;99.90;;;;;;5064503;28;20040;-70